Time;durP1;ratioP1;P1;durP2;ratioP2;P2;SDS_P1;SDS_P2;PMS_P1;PMS_P2;Temp;Humidity;BMP_temperature;BMP_pressure;BME280_temperature;BME280_humidity;BME280_pressure;Samples;Min_cycle;Max_cycle;Signal;HPM_P1;HPM_P2
2022/06/13 00:02:08;;;;;;;8.90;3.20;;;;;;;19.07;67.25;100180.55;105776;1273;23070;-54
2022/06/13 00:04:40;;;;;;;11.40;2.80;;;;;;;19.05;67.11;100173.79;105676;1274;25314;-53
2022/06/13 00:07:12;;;;;;;14.80;3.10;;;;;;;19.06;67.57;100183.70;105732;1274;22538;-54
2022/06/13 00:09:43;;;;;;;8.90;2.80;;;;;;;19.03;67.31;100200.67;105634;1273;25550;-54
2022/06/13 00:12:15;;;;;;;7.60;2.80;;;;;;;19.01;67.78;100220.41;105629;1275;25288;-52
2022/06/13 00:14:47;;;;;;;8.20;2.40;;;;;;;18.94;68.20;100233.44;105640;1274;24412;-52
2022/06/13 00:17:18;;;;;;;8.60;3.20;;;;;;;18.83;68.39;100229.38;105634;1274;22551;-54
2022/06/13 00:19:50;;;;;;;11.90;2.90;;;;;;;18.78;68.57;100227.45;105788;1274;22989;-54
2022/06/13 00:22:21;;;;;;;10.30;3.60;;;;;;;18.73;68.85;100222.32;105600;1274;22560;-53
2022/06/13 00:24:53;;;;;;;10.30;3.10;;;;;;;18.71;68.77;100220.20;105638;1274;22535;-53
2022/06/13 00:27:25;;;;;;;9.10;2.70;;;;;;;18.72;69.32;100231.35;105782;1274;22573;-54
2022/06/13 00:29:56;;;;;;;8.70;2.50;;;;;;;18.61;70.07;100234.27;105695;1274;26558;-54
2022/06/13 00:32:27;;;;;;;9.90;3.10;;;;;;;18.55;69.58;100215.33;105679;1274;22572;-53
2022/06/13 00:34:59;;;;;;;9.40;2.90;;;;;;;18.54;69.70;100215.29;105832;1274;24224;-55
2022/06/13 00:37:31;;;;;;;11.20;2.40;;;;;;;18.56;69.70;100202.46;105803;1274;25330;-54
2022/06/13 00:40:02;;;;;;;12.10;3.20;;;;;;;18.59;69.66;100188.80;105670;1274;22582;-54
2022/06/13 00:42:34;;;;;;;9.00;2.80;;;;;;;18.64;69.67;100185.60;105586;1274;22559;-53
2022/06/13 00:45:11;;;;;;;7.40;2.10;;;;;;;18.67;69.42;100174.75;105687;1274;22546;-51
2022/06/13 00:47:46;;;;;;;6.00;1.80;;;;;;;18.73;69.18;100153.42;105696;1274;22550;-54
2022/06/13 00:50:24;;;;;;;7.20;2.00;;;;;;;18.78;69.03;100136.74;105784;1274;25358;-52
2022/06/13 00:53:02;;;;;;;11.30;2.40;;;;;;;18.83;69.15;100118.23;105732;1274;22500;-51
2022/06/13 00:55:38;;;;;;;8.00;1.80;;;;;;;18.86;69.14;100114.70;105823;1274;25316;-52
2022/06/13 00:58:11;;;;;;;11.00;2.50;;;;;;;18.87;69.40;100119.67;105731;1274;25195;-54
2022/06/13 01:00:47;;;;;;;8.50;2.20;;;;;;;18.82;69.75;100130.30;105661;1274;23199;-54
2022/06/13 01:03:20;;;;;;;6.90;2.10;;;;;;;18.76;69.65;100130.91;105624;1275;23043;-51
2022/06/13 01:05:55;;;;;;;8.80;2.30;;;;;;;18.76;69.83;100136.94;105679;1274;25404;-53
2022/06/13 01:08:31;;;;;;;8.70;2.60;;;;;;;18.70;70.05;100134.50;105779;1274;25235;-53
2022/06/13 01:11:19;;;;;;;11.00;2.60;;;;;;;18.69;70.20;100126.23;105747;1275;22551;-54
2022/06/13 01:14:20;;;;;;;7.30;2.60;;;;;;;18.66;70.41;100126.91;105597;1274;22562;-54
2022/06/13 01:17:03;;;;;;;7.10;2.60;;;;;;;18.61;70.63;100133.05;105092;1281;22564;-52
2022/06/13 01:20:07;;;;;;;9.40;3.00;;;;;;;18.54;70.80;100129.55;105538;1281;23005;-52
2022/06/13 01:23:11;;;;;;;9.20;2.60;;;;;;;18.53;71.03;100129.47;105591;1281;22669;-53
2022/06/13 01:26:05;;;;;;;8.70;2.60;;;;;;;18.53;70.96;100111.68;105099;1284;22566;-54
2022/06/13 01:29:02;;;;;;;12.40;3.10;;;;;;;18.52;71.22;100110.88;104956;1284;24422;-53
2022/06/13 01:31:40;;;;;;;9.40;2.70;;;;;;;18.49;71.22;100119.81;105202;1284;22550;-54
2022/06/13 01:34:21;;;;;;;8.00;2.90;;;;;;;18.46;71.31;100121.48;104834;1284;24335;-52
2022/06/13 01:37:07;;;;;;;10.50;2.80;;;;;;;18.45;71.55;100117.30;105071;1284;22566;-54
2022/06/13 01:39:50;;;;;;;10.50;3.50;;;;;;;18.44;71.69;100105.80;104918;1284;22810;-54
2022/06/13 01:42:36;;;;;;;11.50;3.20;;;;;;;18.42;71.91;100103.35;104787;1284;25260;-54
2022/06/13 01:45:16;;;;;;;11.10;3.00;;;;;;;18.39;71.91;100107.08;104741;1284;24275;-53
2022/06/13 01:47:52;;;;;;;;;;;;;;;18.35;71.84;100108.06;104876;1284;22523;-52
2022/06/13 01:50:31;;;;;;;7.40;2.70;;;;;;;18.31;71.83;100108.80;104927;1284;22645;-53
2022/06/13 01:53:07;;;;;;;10.60;3.10;;;;;;;18.26;71.84;100107.79;104701;1284;22531;-52
2022/06/13 01:55:46;;;;;;;6.60;2.50;;;;;;;18.24;71.86;100109.88;105308;1277;22542;-53
2022/06/13 01:58:21;;;;;;;8.80;2.60;;;;;;;18.21;71.79;100103.48;106044;1262;24313;-63
2022/06/13 02:00:59;;;;;;;7.40;2.70;;;;;;;18.19;72.01;100097.71;105560;1272;22543;-63
2022/06/13 02:03:36;;;;;;;8.20;2.60;;;;;;;18.17;71.87;100089.88;105865;1271;22566;-62
2022/06/13 02:06:15;;;;;;;9.10;2.80;;;;;;;18.15;72.13;100088.67;106391;1273;25381;-63
2022/06/13 02:08:53;;;;;;;8.60;2.70;;;;;;;18.12;72.13;100086.40;105819;1274;22620;-63
2022/06/13 02:11:32;;;;;;;7.80;2.80;;;;;;;18.10;72.23;100084.03;109668;1273;22511;-64
2022/06/13 02:14:09;;;;;;;6.50;2.40;;;;;;;18.08;72.31;100094.60;109656;1273;22506;-64
2022/06/13 02:16:47;;;;;;;11.20;2.50;;;;;;;18.05;72.26;100093.75;109646;1273;23200;-64
2022/06/13 02:19:24;;;;;;;7.90;2.80;;;;;;;18.01;72.44;100098.95;109662;1273;22372;-65
2022/06/13 02:22:00;;;;;;;8.10;2.90;;;;;;;18.00;72.42;100102.15;106026;1274;24306;-63
2022/06/13 02:24:39;;;;;;;9.50;2.70;;;;;;;17.99;72.51;100098.82;105654;1274;22534;-63
2022/06/13 02:27:14;;;;;;;9.50;3.40;;;;;;;17.95;72.54;100093.59;105790;1274;25548;-63
2022/06/13 02:29:52;;;;;;;7.30;2.40;;;;;;;17.90;72.48;100093.75;105821;1273;25372;-62
2022/06/13 02:32:28;;;;;;;9.30;2.90;;;;;;;17.85;72.75;100089.65;105797;1275;22473;-65
2022/06/13 02:35:07;;;;;;;9.50;3.40;;;;;;;17.83;72.83;100093.29;105792;1274;25374;-64
2022/06/13 02:37:44;;;;;;;8.20;2.50;;;;;;;17.78;72.81;100092.15;106539;1274;25406;-64
2022/06/13 02:40:23;;;;;;;9.10;2.50;;;;;;;17.76;72.86;100092.13;105828;1274;22540;-64
2022/06/13 02:43:00;;;;;;;7.10;2.70;;;;;;;17.73;72.90;100088.73;106092;1274;22793;-64
2022/06/13 02:45:37;;;;;;;10.40;3.80;;;;;;;17.71;72.94;100093.53;106019;1274;22740;-64
2022/06/13 02:48:15;;;;;;;9.10;2.80;;;;;;;17.70;73.07;100094.94;105736;1274;22528;-64
2022/06/13 02:50:53;;;;;;;7.60;2.50;;;;;;;17.67;73.01;100096.15;105667;1274;22529;-64
2022/06/13 02:53:34;;;;;;;12.60;3.30;;;;;;;17.65;73.27;100105.14;105674;1274;22567;-64
2022/06/13 02:56:12;;;;;;;11.40;3.80;;;;;;;17.61;73.49;100109.72;105931;1274;24262;-64
2022/06/13 02:58:55;;;;;;;7.70;2.90;;;;;;;17.54;73.80;100103.73;105744;1273;24281;-64
2022/06/13 03:01:33;;;;;;;10.80;3.00;;;;;;;17.52;73.96;100099.77;105753;1274;25315;-64
2022/06/13 03:04:13;;;;;;;8.40;2.30;;;;;;;17.48;74.19;100121.08;105875;1274;25709;-63
2022/06/13 03:06:57;;;;;;;9.60;2.90;;;;;;;17.42;74.67;100142.89;105681;1274;25384;-64
2022/06/13 03:09:33;;;;;;;11.80;3.70;;;;;;;17.35;74.78;100131.68;105753;1275;22570;-65
2022/06/13 03:12:10;;;;;;;9.40;3.50;;;;;;;17.31;74.91;100132.43;105656;1275;22531;-64
2022/06/13 03:14:53;;;;;;;10.50;3.70;;;;;;;17.29;75.18;100132.86;105679;1274;24814;-64
2022/06/13 03:17:35;;;;;;;13.10;3.80;;;;;;;17.27;75.25;100121.90;105689;1274;22536;-65
2022/06/13 03:20:15;;;;;;;10.90;3.90;;;;;;;17.25;75.30;100115.98;105753;1274;22543;-64
2022/06/13 03:22:50;;;;;;;10.70;3.80;;;;;;;17.24;75.41;100118.09;105805;1274;22537;-64
2022/06/13 03:25:29;;;;;;;10.70;4.40;;;;;;;17.23;75.47;100118.88;105748;1274;24175;-63
2022/06/13 03:28:10;;;;;;;8.80;3.60;;;;;;;17.23;75.51;100117.08;105654;1274;25458;-63
2022/06/13 03:30:49;;;;;;;11.60;4.10;;;;;;;17.25;75.62;100119.88;105750;1274;22531;-63
2022/06/13 03:36:23;;;;;;;9.70;3.80;;;;;;;17.30;75.64;100121.77;105470;1273;24268;-63
2022/06/13 03:39:00;;;;;;;12.80;4.20;;;;;;;17.33;75.75;100124.88;106598;1274;22559;-63
2022/06/13 03:41:39;;;;;;;9.80;3.70;;;;;;;17.34;75.57;100119.31;107081;1274;22534;-64
2022/06/13 03:44:16;;;;;;;10.30;3.30;;;;;;;17.38;75.61;100101.23;105768;1274;22532;-61
2022/06/13 03:46:54;;;;;;;10.60;3.50;;;;;;;17.42;75.52;100085.44;105872;1274;22479;-63
2022/06/13 03:49:32;;;;;;;10.50;3.90;;;;;;;17.44;75.75;100099.92;105710;1273;22552;-64
2022/06/13 03:52:07;;;;;;;8.80;2.60;;;;;;;17.41;75.77;100121.05;105949;1274;25259;-64
2022/06/13 03:54:44;;;;;;;7.70;3.40;;;;;;;17.32;76.03;100129.35;106126;1274;25256;-64
2022/06/13 03:57:23;;;;;;;9.70;3.80;;;;;;;17.23;76.12;100125.34;109627;1273;22421;-65
2022/06/13 04:00:00;;;;;;;10.60;3.50;;;;;;;17.22;76.08;100113.86;106558;1274;24376;-64
2022/06/13 04:02:36;;;;;;;11.80;4.10;;;;;;;17.24;76.06;100096.39;106007;1273;22649;-64
2022/06/13 04:05:15;;;;;;;10.10;3.50;;;;;;;17.29;76.43;100099.48;105995;1273;25180;-63
2022/06/13 04:07:47;;;;;;;13.50;4.80;;;;;;;17.31;76.43;100121.73;105796;1274;22583;-63
2022/06/13 04:10:21;;;;;;;11.10;4.50;;;;;;;17.32;76.66;100143.98;105671;1273;22538;-65
2022/06/13 04:13:21;;;;;;;11.20;4.10;;;;;;;17.30;76.71;100158.11;105761;1274;22532;-64
2022/06/13 04:16:04;;;;;;;11.70;4.30;;;;;;;17.26;77.31;100168.95;105655;1274;25410;-64
2022/06/13 04:18:45;;;;;;;10.90;4.60;;;;;;;17.23;77.43;100166.42;105782;1274;22548;-59
2022/06/13 04:21:33;;;;;;;17.60;6.80;;;;;;;17.23;77.60;100138.67;106126;1273;25264;-57
2022/06/13 04:24:14;;;;;;;18.80;7.30;;;;;;;17.21;78.40;100087.39;106259;1274;25382;-56
2022/06/13 04:26:52;;;;;;;18.40;8.40;;;;;;;17.14;78.91;100055.27;106171;1274;26547;-53
2022/06/13 04:29:28;;;;;;;13.20;4.50;;;;;;;17.09;78.94;100039.67;106129;1273;22714;-57
2022/06/13 04:32:08;;;;;;;11.60;3.30;;;;;;;17.02;79.30;100015.60;106042;1273;22547;-63
2022/06/13 04:34:46;;;;;;;10.40;2.30;;;;;;;16.96;79.25;100018.68;105780;1273;24315;-64
2022/06/13 04:37:21;;;;;;;6.70;2.30;;;;;;;16.94;79.26;100040.50;105864;1274;24358;-63
2022/06/13 04:39:58;;;;;;;7.20;2.20;;;;;;;16.95;79.49;100055.41;105967;1273;22564;-63
2022/06/13 04:42:34;;;;;;;9.10;2.00;;;;;;;16.97;79.41;100064.30;105792;1273;28005;-64
2022/06/13 04:45:21;;;;;;;7.40;2.20;;;;;;;17.02;79.25;100062.36;105995;1273;22559;-64
2022/06/13 04:47:56;;;;;;;9.40;2.90;;;;;;;17.08;79.26;100055.58;105775;1273;25471;-64
2022/06/13 04:50:34;;;;;;;11.70;2.60;;;;;;;17.14;79.47;100048.08;105852;1274;25262;-64
2022/06/13 04:53:10;;;;;;;9.90;2.80;;;;;;;17.19;79.66;100038.14;105982;1273;22527;-64
2022/06/13 04:55:46;;;;;;;11.60;3.30;;;;;;;17.24;79.92;100033.30;105832;1273;22580;-64
2022/06/13 04:58:24;;;;;;;9.90;3.50;;;;;;;17.28;80.20;100032.69;105994;1273;25267;-65
2022/06/13 05:01:03;;;;;;;9.30;3.10;;;;;;;17.33;80.62;100037.98;105729;1273;25334;-65
2022/06/13 05:03:41;;;;;;;8.10;3.30;;;;;;;17.35;80.87;100036.61;105891;1273;22556;-65
2022/06/13 05:06:33;;;;;;;8.50;3.00;;;;;;;17.38;80.88;100036.16;105712;1273;27903;-65
2022/06/13 05:09:07;;;;;;;6.40;2.80;;;;;;;17.41;81.33;100034.70;105870;1273;22546;-66
2022/06/13 05:11:46;;;;;;;11.00;3.30;;;;;;;17.45;81.30;100043.77;105875;1273;22528;-65
2022/06/13 05:14:25;;;;;;;9.20;3.80;;;;;;;17.47;81.28;100047.08;105872;1273;23300;-66
2022/06/13 05:17:31;;;;;;;9.40;3.00;;;;;;;17.49;81.61;100047.23;105928;1273;22667;-65
2022/06/13 05:20:10;;;;;;;10.70;3.40;;;;;;;17.53;81.88;100054.70;105593;1278;22677;-66
2022/06/13 05:23:03;;;;;;;9.20;3.40;;;;;;;17.56;81.49;100068.97;105331;1278;25326;-66
2022/06/13 05:25:44;;;;;;;10.50;3.30;;;;;;;17.60;82.03;100080.00;106147;1277;22506;-66
2022/06/13 05:28:18;;;;;;;8.00;2.80;;;;;;;17.64;82.06;100083.50;105550;1279;22533;-66
2022/06/13 05:30:52;;;;;;;10.90;3.80;;;;;;;17.67;82.30;100096.86;105605;1279;24394;-66
2022/06/13 05:33:26;;;;;;;8.30;3.50;;;;;;;17.70;82.44;100101.20;105277;1279;24257;-66
2022/06/13 05:35:58;;;;;;;9.30;2.80;;;;;;;17.70;82.10;100108.52;105732;1279;25333;-66
2022/06/13 05:38:43;;;;;;;6.80;2.80;;;;;;;17.68;82.10;100112.66;105483;1278;22559;-66
2022/06/13 05:41:15;;;;;;;11.80;3.30;;;;;;;17.69;82.28;100114.90;105537;1277;23002;-66
2022/06/13 05:43:47;;;;;;;11.30;3.70;;;;;;;17.69;82.25;100120.04;105592;1278;22547;-66
2022/06/13 05:46:25;;;;;;;11.50;3.10;;;;;;;17.71;82.26;100124.73;105525;1279;22566;-67
2022/06/13 05:48:59;;;;;;;10.60;3.00;;;;;;;17.71;82.04;100127.15;105430;1278;25332;-65
2022/06/13 05:51:31;;;;;;;11.60;2.80;;;;;;;17.72;82.24;100126.94;105406;1277;24455;-65
2022/06/13 05:54:02;;;;;;;6.70;2.40;;;;;;;17.72;82.29;100116.67;105479;1278;22601;-65
2022/06/13 05:56:34;;;;;;;6.70;2.00;;;;;;;17.75;82.34;100110.06;105483;1277;25476;-65
2022/06/13 05:59:07;;;;;;;8.00;2.40;;;;;;;17.78;82.59;100103.61;106034;1273;24336;-64
2022/06/13 06:01:39;;;;;;;12.50;5.20;;;;;;;17.81;82.81;100096.74;105816;1273;24450;-66
2022/06/13 06:04:11;;;;;;;11.30;4.20;;;;;;;17.82;82.85;100093.13;105799;1273;22551;-65
2022/06/13 06:06:45;;;;;;;10.60;4.70;;;;;;;17.86;83.14;100095.04;105905;1273;22646;-66
2022/06/13 06:09:17;;;;;;;11.40;3.80;;;;;;;17.88;83.09;100089.83;106041;1273;22702;-66
2022/06/13 06:11:49;;;;;;;10.60;3.50;;;;;;;17.90;82.99;100087.59;105845;1273;24386;-65
2022/06/13 06:14:22;;;;;;;10.60;2.50;;;;;;;17.93;83.09;100084.12;105987;1273;24241;-65
2022/06/13 06:16:54;;;;;;;6.80;2.20;;;;;;;17.94;82.94;100078.80;105931;1273;24294;-65
2022/06/13 06:19:26;;;;;;;10.70;3.00;;;;;;;17.95;83.30;100079.50;106082;1273;22578;-66
2022/06/13 06:21:57;;;;;;;7.90;2.40;;;;;;;17.96;83.42;100072.62;107809;1273;22592;-65
2022/06/13 06:24:29;;;;;;;7.50;1.50;;;;;;;17.96;83.34;100068.66;105930;1273;22993;-65
2022/06/13 06:27:03;;;;;;;8.10;2.10;;;;;;;17.98;83.27;100064.52;105963;1273;25256;-65
2022/06/13 06:29:35;;;;;;;9.50;1.70;;;;;;;18.00;82.98;100058.69;106191;1273;22730;-65
2022/06/13 06:32:08;;;;;;;6.70;1.90;;;;;;;18.01;83.02;100056.73;105916;1273;22582;-66
2022/06/13 06:34:42;;;;;;;4.70;1.50;;;;;;;18.01;82.81;100050.67;105952;1273;24199;-65
2022/06/13 06:37:14;;;;;;;6.80;1.60;;;;;;;18.02;82.87;100053.46;105940;1273;22627;-65
2022/06/13 06:39:47;;;;;;;3.80;1.20;;;;;;;18.04;82.93;100055.77;105970;1273;22534;-65
2022/06/13 06:42:18;;;;;;;7.00;1.30;;;;;;;18.05;82.66;100061.66;105850;1273;22536;-64
2022/06/13 06:44:51;;;;;;;5.80;1.20;;;;;;;18.05;82.41;100063.77;105941;1273;22594;-64
2022/06/13 06:47:22;;;;;;;4.60;1.40;;;;;;;18.07;82.31;100065.89;105783;1273;25503;-65
2022/06/13 06:49:54;;;;;;;5.10;1.20;;;;;;;18.08;82.36;100068.35;105902;1273;22591;-64
2022/06/13 06:52:26;;;;;;;4.30;1.50;;;;;;;18.06;82.25;100076.52;105896;1273;22636;-65
2022/06/13 07:00:37;;;;;;;7.80;1.70;;;;;;;18.08;82.32;100054.42;105952;1273;22561;-64
2022/06/13 07:03:09;;;;;;;6.10;1.70;;;;;;;18.08;82.50;100062.19;106016;1273;23126;-64
2022/06/13 07:05:41;;;;;;;7.60;1.50;;;;;;;18.11;82.52;100061.36;105982;1273;24062;-64
2022/06/13 07:08:13;;;;;;;6.60;1.40;;;;;;;18.15;82.75;100055.71;106246;1273;24530;-64
2022/06/13 07:10:48;;;;;;;6.60;1.20;;;;;;;18.16;82.71;100050.75;106239;1273;25376;-65
2022/06/13 07:13:21;;;;;;;4.50;1.50;;;;;;;18.18;82.71;100039.72;106126;1273;23756;-64
2022/06/13 07:15:53;;;;;;;4.40;1.40;;;;;;;18.23;82.53;100038.64;105912;1273;25263;-64
2022/06/13 07:18:25;;;;;;;6.10;1.50;;;;;;;18.28;82.33;100046.02;105878;1273;22545;-63
2022/06/13 07:20:59;;;;;;;5.80;1.60;;;;;;;18.30;82.03;100051.68;105911;1273;25372;-64
2022/06/13 07:23:33;;;;;;;5.00;1.70;;;;;;;18.32;82.04;100049.63;105991;1273;22744;-64
2022/06/13 07:26:05;;;;;;;9.10;2.10;;;;;;;18.35;82.02;100046.25;106038;1273;22636;-64
2022/06/13 07:28:41;;;;;;;10.40;4.20;;;;;;;18.38;81.95;100048.77;101824;1273;5545344;-65
2022/06/13 07:31:19;;;;;;;9.10;3.70;;;;;;;18.41;81.95;100053.46;105796;1273;26122;-64
2022/06/13 07:33:51;;;;;;;11.60;2.20;;;;;;;18.44;81.88;100055.08;105848;1273;25317;-63
2022/06/13 07:36:23;;;;;;;6.80;1.70;;;;;;;18.48;81.98;100060.16;105829;1273;24315;-64
2022/06/13 07:38:55;;;;;;;4.60;1.90;;;;;;;18.51;82.06;100067.95;105805;1273;22543;-65
2022/06/13 07:41:27;;;;;;;5.00;1.50;;;;;;;18.57;82.07;100063.76;105885;1273;24291;-64
2022/06/13 07:44:00;;;;;;;10.20;1.60;;;;;;;18.63;82.05;100065.36;105990;1273;23146;-63
2022/06/13 07:46:33;;;;;;;5.20;1.40;;;;;;;18.69;82.18;100053.80;105911;1273;22573;-64
2022/06/13 07:49:05;;;;;;;5.60;1.40;;;;;;;18.73;81.50;100052.90;105856;1273;22687;-64
2022/06/13 07:51:38;;;;;;;7.30;1.20;;;;;;;18.80;81.72;100053.35;105921;1273;25358;-64
2022/06/13 07:54:10;;;;;;;7.20;1.40;;;;;;;18.87;81.46;100049.11;106050;1273;22548;-64
2022/06/13 07:56:43;;;;;;;4.50;1.30;;;;;;;18.92;81.20;100053.64;105994;1273;22733;-64
2022/06/13 07:59:19;;;;;;;4.30;1.60;;;;;;;18.99;81.16;100059.60;106419;1260;25314;-51
2022/06/13 08:01:50;;;;;;;8.80;2.20;;;;;;;19.05;80.75;100067.57;105669;1273;25251;-53
2022/06/13 08:04:22;;;;;;;7.90;2.20;;;;;;;19.10;80.81;100070.66;105695;1273;22564;-55
2022/06/13 08:06:54;;;;;;;9.60;2.20;;;;;;;19.14;80.36;100072.18;105731;1273;26371;-57
2022/06/13 08:09:27;;;;;;;10.20;2.90;;;;;;;19.18;80.60;100075.96;105756;1273;25352;-51
2022/06/13 08:12:00;;;;;;;13.80;4.60;;;;;;;19.19;80.33;100076.66;105749;1273;25313;-54
2022/06/13 08:14:32;;;;;;;13.70;5.00;;;;;;;19.18;80.30;100078.09;105995;1273;24233;-54
2022/06/13 08:17:04;;;;;;;13.90;6.60;;;;;;;19.15;79.96;100076.84;105972;1273;25251;-56
2022/06/13 08:19:36;;;;;;;17.60;7.70;;;;;;;19.09;80.00;100071.60;106022;1273;22531;-52
2022/06/13 08:22:08;;;;;;;19.50;9.30;;;;;;;19.04;80.07;100067.84;105982;1273;22632;-54
2022/06/13 08:24:40;;;;;;;18.30;8.40;;;;;;;19.00;79.98;100067.77;105999;1273;22557;-52
2022/06/13 08:27:12;;;;;;;15.50;7.40;;;;;;;18.98;80.31;100069.39;106009;1273;22546;-57
2022/06/13 08:29:44;;;;;;;24.00;9.50;;;;;;;19.00;80.40;100074.40;105977;1273;22654;-57
2022/06/13 08:32:15;;;;;;;18.10;8.70;;;;;;;19.02;80.56;100077.03;105719;1273;22570;-54
2022/06/13 08:34:47;;;;;;;19.70;9.20;;;;;;;19.04;80.54;100074.36;105887;1273;24272;-51
2022/06/13 08:37:19;;;;;;;19.80;9.70;;;;;;;19.08;80.30;100068.84;106018;1273;25385;-55
2022/06/13 08:39:51;;;;;;;19.90;9.90;;;;;;;19.16;80.52;100073.90;105970;1273;24387;-55
2022/06/13 08:42:31;;;;;;;20.40;10.20;;;;;;;19.24;80.33;100081.73;105947;1273;24298;-55
2022/06/13 08:45:07;;;;;;;23.10;10.90;;;;;;;19.31;79.80;100088.94;105795;1273;22541;-53
2022/06/13 08:47:47;;;;;;;22.20;11.90;;;;;;;19.36;79.53;100098.65;105755;1273;24282;-54
2022/06/13 08:50:33;;;;;;;21.30;13.50;;;;;;;19.37;79.09;100104.67;105806;1273;22654;-54
2022/06/13 08:53:11;;;;;;;19.60;11.50;;;;;;;19.38;79.08;100115.20;106056;1273;22527;-54
2022/06/13 08:55:48;;;;;;;23.20;11.70;;;;;;;19.34;78.89;100128.64;105918;1273;23079;-54
2022/06/13 08:58:26;;;;;;;22.00;9.70;;;;;;;19.28;79.04;100134.91;105800;1273;23067;-54
2022/06/13 09:01:01;;;;;;;22.10;9.30;;;;;;;19.19;78.70;100135.38;106032;1273;22559;-50
2022/06/13 09:03:39;;;;;;;16.70;9.20;;;;;;;19.06;78.43;100144.70;106044;1273;22801;-53
2022/06/13 09:06:17;;;;;;;18.40;8.60;;;;;;;18.95;78.51;100146.02;105988;1273;22547;-54
2022/06/13 09:08:57;;;;;;;16.90;7.80;;;;;;;18.83;78.49;100154.29;105878;1274;24207;-56
2022/06/13 09:11:44;;;;;;;18.00;7.40;;;;;;;18.70;78.26;100160.89;105869;1273;22543;-54
2022/06/13 09:14:22;;;;;;;18.60;7.80;;;;;;;18.54;77.55;100164.23;105695;1273;22550;-52
2022/06/13 09:17:02;;;;;;;15.60;6.40;;;;;;;18.38;77.07;100172.57;105670;1273;24259;-53
2022/06/13 09:19:39;;;;;;;16.20;6.20;;;;;;;18.23;76.76;100179.34;105833;1273;22661;-55
2022/06/13 09:22:17;;;;;;;18.30;6.00;;;;;;;18.09;77.12;100177.11;105685;1273;22613;-56
2022/06/13 09:25:00;;;;;;;18.00;6.50;;;;;;;17.98;77.40;100184.90;105634;1273;22551;-53
2022/06/13 09:27:38;;;;;;;16.00;5.30;;;;;;;17.89;77.57;100198.92;105608;1273;25379;-51
2022/06/13 09:30:16;;;;;;;16.90;6.20;;;;;;;17.78;77.91;100209.37;105794;1273;22549;-56
2022/06/13 09:32:53;;;;;;;14.50;5.90;;;;;;;17.67;78.72;100223.66;105688;1273;24269;-55
2022/06/13 09:35:29;;;;;;;19.10;6.70;;;;;;;17.58;79.35;100227.38;105707;1273;25355;-52
2022/06/13 09:38:09;;;;;;;15.70;5.90;;;;;;;17.53;79.90;100234.27;105898;1273;22571;-51
2022/06/13 09:40:54;;;;;;;15.10;6.90;;;;;;;17.41;80.12;100237.72;105913;1273;22543;-58
2022/06/13 09:43:39;;;;;;;20.10;6.40;;;;;;;17.29;80.78;100237.02;105752;1273;24434;-55
2022/06/13 09:46:20;;;;;;;17.10;5.90;;;;;;;17.18;81.14;100241.81;105909;1273;22669;-53
2022/06/13 09:49:06;;;;;;;14.10;5.20;;;;;;;17.09;81.60;100242.29;105905;1273;24310;-57
2022/06/13 09:51:52;;;;;;;13.50;5.30;;;;;;;16.97;81.78;100246.47;105777;1273;22560;-58
2022/06/13 09:54:39;;;;;;;12.90;5.20;;;;;;;16.87;81.91;100246.95;105599;1273;22724;-58
2022/06/13 09:57:21;;;;;;;12.00;3.80;;;;;;;16.76;82.16;100253.48;105666;1273;23932;-59
2022/06/13 10:00:07;;;;;;;14.20;4.10;;;;;;;16.62;82.43;100255.71;105608;1273;22561;-59
2022/06/13 10:02:49;;;;;;;9.80;3.60;;;;;;;16.48;82.50;100258.38;105892;1273;22534;-58
2022/06/13 10:05:43;;;;;;;14.80;3.70;;;;;;;16.41;82.99;100266.65;105828;1273;25302;-60
2022/06/13 10:08:29;;;;;;;12.40;3.60;;;;;;;16.31;83.26;100273.77;105778;1273;22528;-61
2022/06/13 10:11:09;;;;;;;10.90;3.80;;;;;;;16.22;83.45;100274.20;105858;1273;24464;-60
2022/06/13 10:13:57;;;;;;;11.90;3.40;;;;;;;16.16;83.63;100277.28;105779;1273;25372;-61
2022/06/13 10:16:41;;;;;;;15.50;4.40;;;;;;;16.11;83.57;100278.17;105622;1273;24250;-61
2022/06/13 10:19:26;;;;;;;15.00;3.60;;;;;;;16.08;83.94;100279.26;105632;1274;22705;-61
2022/06/13 10:22:06;;;;;;;12.20;3.20;;;;;;;16.04;84.11;100268.73;105671;1273;22593;-60
2022/06/13 10:24:51;;;;;;;13.20;3.10;;;;;;;15.99;83.60;100262.95;105674;1273;24301;-59
2022/06/13 10:27:35;;;;;;;18.30;3.60;;;;;;;15.99;83.93;100263.27;105960;1273;22815;-59
2022/06/13 10:30:30;;;;;;;11.10;2.90;;;;;;;15.98;84.23;100261.98;105837;1273;22568;-58
2022/06/13 10:33:21;;;;;;;13.00;3.20;;;;;;;16.02;84.48;100261.05;105726;1273;25886;-58
2022/06/13 10:35:59;;;;;;;12.70;4.10;;;;;;;16.06;84.40;100257.09;105805;1273;22549;-60
2022/06/13 10:38:46;;;;;;;11.00;3.60;;;;;;;16.08;84.77;100250.38;105762;1273;22673;-59
2022/06/13 10:41:21;;;;;;;13.20;3.80;;;;;;;16.10;85.24;100247.81;105753;1273;24371;-56
2022/06/13 10:43:55;;;;;;;12.30;3.70;;;;;;;16.15;85.39;100259.27;105971;1273;22533;-58
2022/06/13 10:46:27;;;;;;;17.90;4.60;;;;;;;16.18;85.43;100262.13;106027;1273;22570;-58
2022/06/13 10:49:03;;;;;;;13.50;4.80;;;;;;;16.19;85.19;100249.98;106052;1273;22612;-59
2022/06/13 10:51:36;;;;;;;13.00;4.60;;;;;;;16.23;85.53;100246.09;105765;1273;26501;-57
2022/06/13 10:54:14;;;;;;;14.60;4.80;;;;;;;16.29;85.78;100244.99;105719;1273;22757;-57
2022/06/13 10:56:49;;;;;;;10.10;3.80;;;;;;;16.35;85.75;100242.60;105818;1273;25519;-58
2022/06/13 10:59:29;;;;;;;11.80;4.30;;;;;;;16.40;85.68;100244.27;105756;1271;24409;-57
2022/06/13 11:02:03;;;;;;;18.90;4.90;;;;;;;16.45;85.62;100248.14;105848;1273;22564;-57
2022/06/13 11:04:37;;;;;;;14.90;4.90;;;;;;;16.51;85.61;100242.80;105910;1274;24233;-53
2022/06/13 11:07:15;;;;;;;15.00;5.40;;;;;;;16.58;85.38;100240.73;105812;1273;24859;-57
2022/06/13 11:09:49;;;;;;;15.30;4.90;;;;;;;16.65;85.58;100239.95;105885;1273;22781;-56
2022/06/13 11:12:25;;;;;;;20.00;6.50;;;;;;;16.75;85.94;100241.40;105701;1273;25281;-55
2022/06/13 11:23:46;;;;;;;15.50;5.90;;;;;;;17.11;85.23;100238.64;105676;1273;22618;-52
2022/06/13 11:29:14;;;;;;;17.00;7.10;;;;;;;17.16;84.81;100232.91;105581;1273;24267;-56
2022/06/13 11:31:52;;;;;;;20.10;7.00;;;;;;;17.15;84.87;100230.71;105812;1273;22570;-54
2022/06/13 11:34:33;;;;;;;22.70;7.70;;;;;;;17.16;84.86;100232.60;105835;1272;22558;-55
2022/06/13 11:37:17;;;;;;;16.40;6.20;;;;;;;17.17;84.75;100231.92;105865;1273;22704;-55
2022/06/13 11:39:50;;;;;;;18.30;6.70;;;;;;;17.22;84.88;100231.67;105731;1273;25496;-55
2022/06/13 11:42:26;;;;;;;19.10;7.40;;;;;;;17.26;84.80;100224.77;105782;1273;22631;-59
2022/06/13 11:45:01;;;;;;;15.40;6.40;;;;;;;17.29;84.68;100227.58;105876;1273;25886;-55
2022/06/13 11:47:43;;;;;;;15.50;6.50;;;;;;;17.33;84.51;100231.48;105774;1273;24337;-53
2022/06/13 11:50:23;;;;;;;19.20;7.90;;;;;;;17.38;84.36;100231.03;105816;1273;22560;-54
2022/06/13 11:55:56;;;;;;;18.60;6.00;;;;;;;17.47;84.06;100248.15;105602;1273;22545;-53
2022/06/13 11:58:31;;;;;;;15.30;4.80;;;;;;;17.50;83.56;100241.94;105638;1273;22608;-54
2022/06/13 12:01:12;;;;;;;13.90;4.70;;;;;;;17.51;82.90;100240.64;105676;1273;23040;-54
2022/06/13 12:03:58;;;;;;;15.60;4.90;;;;;;;17.48;82.72;100232.79;105824;1273;25459;-53
2022/06/13 12:06:33;;;;;;;13.30;4.60;;;;;;;17.49;83.02;100230.80;105655;1273;25541;-55
2022/06/13 12:09:14;;;;;;;16.10;5.00;;;;;;;17.50;82.78;100243.56;105702;1273;22653;-55
2022/06/13 12:11:48;;;;;;;15.40;4.90;;;;;;;17.49;82.73;100241.20;105790;1273;24371;-52
2022/06/13 12:14:19;;;;;;;15.20;5.90;;;;;;;17.52;82.81;100248.45;105672;1273;22653;-54
2022/06/13 12:16:58;;;;;;;14.10;4.80;;;;;;;17.53;82.97;100249.50;105712;1273;22539;-56
2022/06/13 12:19:35;;;;;;;16.50;4.10;;;;;;;17.54;82.21;100245.54;106045;1273;24790;-52
2022/06/13 12:22:14;;;;;;;12.30;4.40;;;;;;;17.52;82.38;100248.99;105723;1273;26490;-52